sensor_id;sensor_type;location;lat;lon;timestamp;P1;durP1;ratioP1;P2;durP2;ratioP2
18647;SDS011;9453;50.294;18.644;2023-02-14T05:03:03;22.57;;;7.90;;
18647;SDS011;9453;50.294;18.644;2023-02-14T05:05:31;15.93;;;8.10;;
18647;SDS011;9453;50.294;18.644;2023-02-14T05:07:58;16.43;;;8.57;;
18647;SDS011;9453;50.294;18.644;2023-02-14T05:10:25;16.53;;;7.73;;
18647;SDS011;9453;50.294;18.644;2023-02-14T05:12:57;16.83;;;8.53;;
18647;SDS011;9453;50.294;18.644;2023-02-14T05:15:24;15.37;;;8.10;;
18647;SDS011;9453;50.294;18.644;2023-02-14T05:17:51;16.13;;;8.37;;
18647;SDS011;9453;50.294;18.644;2023-02-14T05:20:20;16.30;;;7.73;;
18647;SDS011;9453;50.294;18.644;2023-02-14T05:22:47;17.50;;;7.50;;
18647;SDS011;9453;50.294;18.644;2023-02-14T05:25:14;17.40;;;7.77;;
18647;SDS011;9453;50.294;18.644;2023-02-14T05:27:41;15.13;;;7.03;;
18647;SDS011;9453;50.294;18.644;2023-02-14T05:30:08;18.93;;;8.30;;
18647;SDS011;9453;50.294;18.644;2023-02-14T05:32:37;16.63;;;7.50;;
18647;SDS011;9453;50.294;18.644;2023-02-14T05:35:04;17.23;;;7.73;;
18647;SDS011;9453;50.294;18.644;2023-02-14T05:37:35;17.03;;;7.73;;
18647;SDS011;9453;50.294;18.644;2023-02-14T05:40:03;15.13;;;8.30;;
18647;SDS011;9453;50.294;18.644;2023-02-14T05:42:32;16.03;;;7.70;;
18647;SDS011;9453;50.294;18.644;2023-02-14T05:45:01;19.30;;;8.70;;
18647;SDS011;9453;50.294;18.644;2023-02-14T05:47:28;18.27;;;8.57;;
18647;SDS011;9453;50.294;18.644;2023-02-14T05:49:55;15.77;;;7.93;;
18647;SDS011;9453;50.294;18.644;2023-02-14T05:52:23;19.10;;;9.20;;
18647;SDS011;9453;50.294;18.644;2023-02-14T05:54:51;19.93;;;9.23;;
18647;SDS011;9453;50.294;18.644;2023-02-14T05:57:19;21.17;;;10.00;;
18647;SDS011;9453;50.294;18.644;2023-02-14T05:59:46;20.63;;;9.77;;
18647;SDS011;9453;50.294;18.644;2023-02-14T06:02:13;20.73;;;8.93;;
18647;SDS011;9453;50.294;18.644;2023-02-14T06:04:41;22.23;;;10.47;;
18647;SDS011;9453;50.294;18.644;2023-02-14T06:07:08;20.83;;;9.27;;
18647;SDS011;9453;50.294;18.644;2023-02-14T06:09:35;23.03;;;10.27;;
18647;SDS011;9453;50.294;18.644;2023-02-14T06:12:04;18.60;;;8.67;;
18647;SDS011;9453;50.294;18.644;2023-02-14T06:14:32;18.30;;;8.97;;
18647;SDS011;9453;50.294;18.644;2023-02-14T06:17:04;18.23;;;8.40;;
18647;SDS011;9453;50.294;18.644;2023-02-14T06:19:31;18.73;;;8.40;;
18647;SDS011;9453;50.294;18.644;2023-02-14T06:21:59;15.13;;;7.43;;
18647;SDS011;9453;50.294;18.644;2023-02-14T06:24:31;13.73;;;6.83;;
18647;SDS011;9453;50.294;18.644;2023-02-14T06:27:01;17.50;;;7.17;;
18647;SDS011;9453;50.294;18.644;2023-02-14T06:29:29;17.20;;;7.07;;
18647;SDS011;9453;50.294;18.644;2023-02-14T06:31:56;16.07;;;6.57;;
18647;SDS011;9453;50.294;18.644;2023-02-14T06:34:32;14.90;;;6.40;;
18647;SDS011;9453;50.294;18.644;2023-02-14T06:36:59;17.77;;;7.30;;
18647;SDS011;9453;50.294;18.644;2023-02-14T06:39:26;16.47;;;7.20;;
18647;SDS011;9453;50.294;18.644;2023-02-14T06:41:53;12.20;;;6.90;;
18647;SDS011;9453;50.294;18.644;2023-02-14T06:47:27;17.27;;;7.43;;
18647;SDS011;9453;50.294;18.644;2023-02-14T06:49:54;17.20;;;7.20;;
18647;SDS011;9453;50.294;18.644;2023-02-14T06:52:21;13.67;;;6.57;;
18647;SDS011;9453;50.294;18.644;2023-02-14T06:54:48;15.53;;;6.90;;
18647;SDS011;9453;50.294;18.644;2023-02-14T06:57:15;17.73;;;7.47;;
18647;SDS011;9453;50.294;18.644;2023-02-14T06:59:42;15.57;;;7.40;;
18647;SDS011;9453;50.294;18.644;2023-02-14T07:02:10;16.53;;;7.40;;
18647;SDS011;9453;50.294;18.644;2023-02-14T07:04:37;16.30;;;8.17;;
18647;SDS011;9453;50.294;18.644;2023-02-14T07:07:04;15.80;;;7.67;;
18647;SDS011;9453;50.294;18.644;2023-02-14T07:09:31;16.67;;;7.93;;
18647;SDS011;9453;50.294;18.644;2023-02-14T07:11:58;16.47;;;8.03;;
18647;SDS011;9453;50.294;18.644;2023-02-14T07:14:25;19.73;;;8.27;;
18647;SDS011;9453;50.294;18.644;2023-02-14T07:16:52;14.63;;;7.60;;
18647;SDS011;9453;50.294;18.644;2023-02-14T07:19:21;16.80;;;7.70;;
18647;SDS011;9453;50.294;18.644;2023-02-14T07:21:48;14.27;;;7.00;;
18647;SDS011;9453;50.294;18.644;2023-02-14T07:24:15;15.17;;;7.23;;
18647;SDS011;9453;50.294;18.644;2023-02-14T07:26:41;16.77;;;7.20;;
18647;SDS011;9453;50.294;18.644;2023-02-14T07:29:08;14.13;;;7.43;;
18647;SDS011;9453;50.294;18.644;2023-02-14T07:31:35;12.87;;;6.80;;
18647;SDS011;9453;50.294;18.644;2023-02-14T07:34:03;13.70;;;6.50;;
18647;SDS011;9453;50.294;18.644;2023-02-14T07:36:31;14.60;;;7.30;;
18647;SDS011;9453;50.294;18.644;2023-02-14T07:38:58;12.37;;;6.97;;
18647;SDS011;9453;50.294;18.644;2023-02-14T07:41:25;16.70;;;7.23;;
18647;SDS011;9453;50.294;18.644;2023-02-14T07:43:52;14.73;;;7.40;;
18647;SDS011;9453;50.294;18.644;2023-02-14T07:46:21;16.67;;;7.50;;
18647;SDS011;9453;50.294;18.644;2023-02-14T07:48:48;17.17;;;8.30;;
18647;SDS011;9453;50.294;18.644;2023-02-14T07:51:16;16.30;;;7.77;;
18647;SDS011;9453;50.294;18.644;2023-02-14T07:53:44;18.00;;;8.73;;
18647;SDS011;9453;50.294;18.644;2023-02-14T07:56:11;20.20;;;9.27;;
18647;SDS011;9453;50.294;18.644;2023-02-14T07:58:38;18.57;;;8.40;;
18647;SDS011;9453;50.294;18.644;2023-02-14T08:01:05;17.43;;;8.30;;
18647;SDS011;9453;50.294;18.644;2023-02-14T08:03:32;19.47;;;8.70;;
18647;SDS011;9453;50.294;18.644;2023-02-14T08:06:02;17.30;;;7.80;;
18647;SDS011;9453;50.294;18.644;2023-02-14T08:08:30;16.50;;;7.53;;
18647;SDS011;9453;50.294;18.644;2023-02-14T08:10:59;21.93;;;8.70;;
18647;SDS011;9453;50.294;18.644;2023-02-14T08:13:28;19.23;;;8.67;;
18647;SDS011;9453;50.294;18.644;2023-02-14T08:15:58;17.07;;;8.97;;
18647;SDS011;9453;50.294;18.644;2023-02-14T08:18:33;18.87;;;8.60;;
18647;SDS011;9453;50.294;18.644;2023-02-14T08:21:02;15.57;;;7.10;;
18647;SDS011;9453;50.294;18.644;2023-02-14T08:23:29;19.67;;;8.67;;
18647;SDS011;9453;50.294;18.644;2023-02-14T08:25:56;17.60;;;7.73;;
18647;SDS011;9453;50.294;18.644;2023-02-14T08:28:25;15.53;;;7.90;;
18647;SDS011;9453;50.294;18.644;2023-02-14T08:30:52;16.23;;;7.43;;
18647;SDS011;9453;50.294;18.644;2023-02-14T08:33:20;17.13;;;7.67;;
18647;SDS011;9453;50.294;18.644;2023-02-14T08:35:47;18.80;;;8.37;;
18647;SDS011;9453;50.294;18.644;2023-02-14T08:38:14;18.43;;;8.50;;
18647;SDS011;9453;50.294;18.644;2023-02-14T08:40:41;18.77;;;8.03;;
18647;SDS011;9453;50.294;18.644;2023-02-14T08:43:09;14.87;;;7.80;;
18647;SDS011;9453;50.294;18.644;2023-02-14T08:45:38;17.60;;;7.87;;
18647;SDS011;9453;50.294;18.644;2023-02-14T08:48:07;16.00;;;7.27;;
18647;SDS011;9453;50.294;18.644;2023-02-14T08:50:35;19.53;;;7.77;;
18647;SDS011;9453;50.294;18.644;2023-02-14T08:53:06;22.50;;;9.27;;
18647;SDS011;9453;50.294;18.644;2023-02-14T08:55:33;20.97;;;9.40;;
18647;SDS011;9453;50.294;18.644;2023-02-14T08:58:01;26.33;;;9.97;;
18647;SDS011;9453;50.294;18.644;2023-02-14T09:00:29;30.60;;;10.63;;
18647;SDS011;9453;50.294;18.644;2023-02-14T09:02:56;26.17;;;11.07;;
18647;SDS011;9453;50.294;18.644;2023-02-14T09:05:23;26.97;;;12.73;;
18647;SDS011;9453;50.294;18.644;2023-02-14T09:07:52;20.87;;;10.00;;
18647;SDS011;9453;50.294;18.644;2023-02-14T09:10:21;21.13;;;9.07;;
18647;SDS011;9453;50.294;18.644;2023-02-14T09:12:48;19.50;;;8.87;;
18647;SDS011;9453;50.294;18.644;2023-02-14T09:15:15;19.83;;;8.30;;
18647;SDS011;9453;50.294;18.644;2023-02-14T09:17:44;19.93;;;9.17;;
18647;SDS011;9453;50.294;18.644;2023-02-14T09:20:12;15.77;;;7.87;;
18647;SDS011;9453;50.294;18.644;2023-02-14T09:22:40;24.60;;;8.50;;
18647;SDS011;9453;50.294;18.644;2023-02-14T09:25:07;17.57;;;7.90;;
18647;SDS011;9453;50.294;18.644;2023-02-14T09:27:35;14.93;;;7.43;;
18647;SDS011;9453;50.294;18.644;2023-02-14T09:30:02;17.60;;;8.00;;
18647;SDS011;9453;50.294;18.644;2023-02-14T09:32:29;20.87;;;9.53;;
18647;SDS011;9453;50.294;18.644;2023-02-14T09:34:58;20.57;;;9.83;;
18647;SDS011;9453;50.294;18.644;2023-02-14T09:37:42;19.43;;;8.27;;
18647;SDS011;9453;50.294;18.644;2023-02-14T09:40:10;22.57;;;9.23;;
18647;SDS011;9453;50.294;18.644;2023-02-14T09:42:47;20.57;;;8.50;;
18647;SDS011;9453;50.294;18.644;2023-02-14T09:45:18;18.33;;;7.43;;
18647;SDS011;9453;50.294;18.644;2023-02-14T09:47:49;15.57;;;7.37;;
18647;SDS011;9453;50.294;18.644;2023-02-14T09:50:22;15.27;;;7.77;;
18647;SDS011;9453;50.294;18.644;2023-02-14T09:52:54;21.77;;;7.77;;
18647;SDS011;9453;50.294;18.644;2023-02-14T09:55:25;18.20;;;7.77;;
18647;SDS011;9453;50.294;18.644;2023-02-14T09:58:04;20.20;;;8.77;;
18647;SDS011;9453;50.294;18.644;2023-02-14T10:00:38;25.73;;;11.03;;
18647;SDS011;9453;50.294;18.644;2023-02-14T10:03:28;21.97;;;8.50;;
18647;SDS011;9453;50.294;18.644;2023-02-14T10:06:07;17.33;;;8.03;;
18647;SDS011;9453;50.294;18.644;2023-02-14T10:08:42;21.87;;;7.77;;
18647;SDS011;9453;50.294;18.644;2023-02-14T10:11:16;16.07;;;7.67;;
18647;SDS011;9453;50.294;18.644;2023-02-14T10:13:47;18.07;;;8.33;;
18647;SDS011;9453;50.294;18.644;2023-02-14T10:16:17;18.73;;;8.27;;
18647;SDS011;9453;50.294;18.644;2023-02-14T10:18:51;14.90;;;7.43;;
18647;SDS011;9453;50.294;18.644;2023-02-14T10:21:24;16.47;;;7.80;;
18647;SDS011;9453;50.294;18.644;2023-02-14T10:24:01;16.87;;;7.53;;
18647;SDS011;9453;50.294;18.644;2023-02-14T10:26:36;21.77;;;8.03;;
18647;SDS011;9453;50.294;18.644;2023-02-14T10:29:08;15.80;;;8.23;;
18647;SDS011;9453;50.294;18.644;2023-02-14T10:35:10;15.33;;;7.73;;
18647;SDS011;9453;50.294;18.644;2023-02-14T10:37:53;19.33;;;9.47;;
18647;SDS011;9453;50.294;18.644;2023-02-14T10:40:33;15.03;;;8.20;;
18647;SDS011;9453;50.294;18.644;2023-02-14T10:43:12;29.77;;;14.20;;
18647;SDS011;9453;50.294;18.644;2023-02-14T10:45:52;28.33;;;12.90;;
18647;SDS011;9453;50.294;18.644;2023-02-14T10:48:30;18.07;;;8.60;;
18647;SDS011;9453;50.294;18.644;2023-02-14T10:51:11;14.73;;;7.30;;
18647;SDS011;9453;50.294;18.644;2023-02-14T10:53:47;25.03;;;10.23;;
18647;SDS011;9453;50.294;18.644;2023-02-14T10:56:33;20.80;;;8.97;;
18647;SDS011;9453;50.294;18.644;2023-02-14T10:59:07;15.23;;;8.13;;
18647;SDS011;9453;50.294;18.644;2023-02-14T11:01:43;18.73;;;8.23;;
18647;SDS011;9453;50.294;18.644;2023-02-14T11:04:10;17.47;;;7.67;;
18647;SDS011;9453;50.294;18.644;2023-02-14T11:06:40;19.63;;;9.80;;
18647;SDS011;9453;50.294;18.644;2023-02-14T11:09:11;16.93;;;8.67;;
18647;SDS011;9453;50.294;18.644;2023-02-14T11:11:39;19.90;;;8.60;;
18647;SDS011;9453;50.294;18.644;2023-02-14T11:14:20;20.17;;;10.00;;
18647;SDS011;9453;50.294;18.644;2023-02-14T11:16:49;17.53;;;8.40;;
18647;SDS011;9453;50.294;18.644;2023-02-14T11:19:19;19.20;;;7.90;;
18647;SDS011;9453;50.294;18.644;2023-02-14T11:21:51;15.57;;;8.13;;
18647;SDS011;9453;50.294;18.644;2023-02-14T11:24:24;18.33;;;8.00;;
18647;SDS011;9453;50.294;18.644;2023-02-14T11:26:53;17.03;;;8.63;;
18647;SDS011;9453;50.294;18.644;2023-02-14T11:29:30;18.57;;;9.03;;
18647;SDS011;9453;50.294;18.644;2023-02-14T11:32:05;21.40;;;8.67;;
18647;SDS011;9453;50.294;18.644;2023-02-14T11:34:39;16.43;;;7.57;;
18647;SDS011;9453;50.294;18.644;2023-02-14T11:37:23;17.00;;;7.47;;
18647;SDS011;9453;50.294;18.644;2023-02-14T11:39:54;14.90;;;8.10;;
18647;SDS011;9453;50.294;18.644;2023-02-14T11:42:34;16.10;;;7.83;;
18647;SDS011;9453;50.294;18.644;2023-02-14T11:45:09;15.13;;;6.83;;
18647;SDS011;9453;50.294;18.644;2023-02-14T11:48:05;15.63;;;7.77;;
18647;SDS011;9453;50.294;18.644;2023-02-14T11:50:35;12.37;;;5.50;;
18647;SDS011;9453;50.294;18.644;2023-02-14T11:53:04;14.37;;;6.30;;
18647;SDS011;9453;50.294;18.644;2023-02-14T11:55:37;12.73;;;6.60;;
18647;SDS011;9453;50.294;18.644;2023-02-14T11:58:06;16.53;;;6.97;;
18647;SDS011;9453;50.294;18.644;2023-02-14T12:00:49;18.03;;;7.03;;
18647;SDS011;9453;50.294;18.644;2023-02-14T12:03:17;13.87;;;7.13;;
18647;SDS011;9453;50.294;18.644;2023-02-14T12:05:46;13.90;;;5.53;;
18647;SDS011;9453;50.294;18.644;2023-02-14T12:08:22;14.23;;;6.37;;
18647;SDS011;9453;50.294;18.644;2023-02-14T12:11:00;11.10;;;5.33;;
18647;SDS011;9453;50.294;18.644;2023-02-14T12:13:29;11.10;;;5.87;;
18647;SDS011;9453;50.294;18.644;2023-02-14T12:15:58;14.40;;;5.77;;
18647;SDS011;9453;50.294;18.644;2023-02-14T12:18:31;12.37;;;5.10;;
18647;SDS011;9453;50.294;18.644;2023-02-14T12:21:10;12.17;;;4.87;;
18647;SDS011;9453;50.294;18.644;2023-02-14T12:24:01;12.90;;;5.17;;
18647;SDS011;9453;50.294;18.644;2023-02-14T12:26:34;9.67;;;5.10;;
18647;SDS011;9453;50.294;18.644;2023-02-14T12:29:11;12.87;;;5.60;;
18647;SDS011;9453;50.294;18.644;2023-02-14T12:31:47;12.13;;;5.20;;
18647;SDS011;9453;50.294;18.644;2023-02-14T12:34:15;9.50;;;4.70;;
18647;SDS011;9453;50.294;18.644;2023-02-14T12:36:48;11.97;;;4.60;;
18647;SDS011;9453;50.294;18.644;2023-02-14T12:39:28;11.97;;;4.30;;
18647;SDS011;9453;50.294;18.644;2023-02-14T12:42:04;9.57;;;4.80;;
18647;SDS011;9453;50.294;18.644;2023-02-14T12:44:42;9.20;;;4.17;;
18647;SDS011;9453;50.294;18.644;2023-02-14T12:47:18;15.47;;;5.90;;
18647;SDS011;9453;50.294;18.644;2023-02-14T12:52:55;11.40;;;6.27;;
18647;SDS011;9453;50.294;18.644;2023-02-14T12:55:44;17.27;;;7.47;;
18647;SDS011;9453;50.294;18.644;2023-02-14T12:58:31;13.63;;;6.40;;
18647;SDS011;9453;50.294;18.644;2023-02-14T13:01:25;15.87;;;8.03;;
18647;SDS011;9453;50.294;18.644;2023-02-14T13:07:06;12.77;;;5.80;;
18647;SDS011;9453;50.294;18.644;2023-02-14T13:09:43;9.97;;;4.40;;
18647;SDS011;9453;50.294;18.644;2023-02-14T13:12:19;8.70;;;4.17;;
18647;SDS011;9453;50.294;18.644;2023-02-14T13:14:59;12.10;;;4.00;;
18647;SDS011;9453;50.294;18.644;2023-02-14T13:20:11;21.50;;;8.13;;
18647;SDS011;9453;50.294;18.644;2023-02-14T13:22:54;47.20;;;18.07;;
18647;SDS011;9453;50.294;18.644;2023-02-14T13:25:39;16.97;;;7.70;;
18647;SDS011;9453;50.294;18.644;2023-02-14T13:28:14;15.17;;;6.27;;
18647;SDS011;9453;50.294;18.644;2023-02-14T13:30:43;15.03;;;5.97;;
18647;SDS011;9453;50.294;18.644;2023-02-14T13:33:22;15.97;;;7.30;;
18647;SDS011;9453;50.294;18.644;2023-02-14T13:35:53;20.80;;;8.07;;
18647;SDS011;9453;50.294;18.644;2023-02-14T13:38:22;13.47;;;5.87;;
18647;SDS011;9453;50.294;18.644;2023-02-14T13:40:51;29.87;;;12.23;;
18647;SDS011;9453;50.294;18.644;2023-02-14T13:46:14;65.60;;;18.47;;
18647;SDS011;9453;50.294;18.644;2023-02-14T13:51:15;24.07;;;8.37;;
18647;SDS011;9453;50.294;18.644;2023-02-14T13:53:42;8.47;;;4.93;;
18647;SDS011;9453;50.294;18.644;2023-02-14T13:56:30;12.70;;;5.33;;
18647;SDS011;9453;50.294;18.644;2023-02-14T13:59:00;12.47;;;5.60;;
18647;SDS011;9453;50.294;18.644;2023-02-14T14:01:35;12.07;;;5.83;;
18647;SDS011;9453;50.294;18.644;2023-02-14T14:04:05;13.63;;;6.53;;
18647;SDS011;9453;50.294;18.644;2023-02-14T14:12:37;19.07;;;6.47;;
18647;SDS011;9453;50.294;18.644;2023-02-14T14:15:15;10.83;;;5.77;;
18647;SDS011;9453;50.294;18.644;2023-02-14T14:17:45;13.60;;;6.73;;
18647;SDS011;9453;50.294;18.644;2023-02-14T14:20:37;17.57;;;6.97;;
18647;SDS011;9453;50.294;18.644;2023-02-14T14:23:25;16.27;;;6.70;;
18647;SDS011;9453;50.294;18.644;2023-02-14T14:25:56;15.07;;;6.53;;
18647;SDS011;9453;50.294;18.644;2023-02-14T14:28:23;10.93;;;6.37;;
18647;SDS011;9453;50.294;18.644;2023-02-14T14:30:52;13.33;;;6.97;;
18647;SDS011;9453;50.294;18.644;2023-02-14T14:33:24;12.33;;;6.03;;
18647;SDS011;9453;50.294;18.644;2023-02-14T14:35:54;13.40;;;6.50;;
18647;SDS011;9453;50.294;18.644;2023-02-14T14:38:22;27.23;;;7.93;;
18647;SDS011;9453;50.294;18.644;2023-02-14T14:40:49;19.70;;;6.57;;
18647;SDS011;9453;50.294;18.644;2023-02-14T14:43:21;14.13;;;6.43;;
18647;SDS011;9453;50.294;18.644;2023-02-14T14:46:08;12.87;;;6.30;;
18647;SDS011;9453;50.294;18.644;2023-02-14T14:48:38;11.00;;;6.10;;
18647;SDS011;9453;50.294;18.644;2023-02-14T14:51:14;12.73;;;6.57;;
18647;SDS011;9453;50.294;18.644;2023-02-14T14:53:49;13.20;;;6.60;;
18647;SDS011;9453;50.294;18.644;2023-02-14T14:56:20;15.47;;;7.37;;
18647;SDS011;9453;50.294;18.644;2023-02-14T14:58:49;21.30;;;7.10;;
18647;SDS011;9453;50.294;18.644;2023-02-14T15:01:27;18.63;;;6.83;;
18647;SDS011;9453;50.294;18.644;2023-02-14T15:04:07;16.03;;;7.23;;
18647;SDS011;9453;50.294;18.644;2023-02-14T15:06:36;21.77;;;8.27;;
18647;SDS011;9453;50.294;18.644;2023-02-14T15:09:10;18.40;;;7.50;;
18647;SDS011;9453;50.294;18.644;2023-02-14T15:11:39;13.80;;;6.77;;
18647;SDS011;9453;50.294;18.644;2023-02-14T15:14:25;12.37;;;6.90;;
18647;SDS011;9453;50.294;18.644;2023-02-14T15:16:56;15.07;;;6.80;;
18647;SDS011;9453;50.294;18.644;2023-02-14T15:19:27;15.70;;;6.77;;
18647;SDS011;9453;50.294;18.644;2023-02-14T15:21:59;12.23;;;6.03;;
18647;SDS011;9453;50.294;18.644;2023-02-14T15:24:28;13.80;;;6.90;;
18647;SDS011;9453;50.294;18.644;2023-02-14T15:26:59;22.43;;;9.10;;
18647;SDS011;9453;50.294;18.644;2023-02-14T15:29:27;14.17;;;6.73;;
18647;SDS011;9453;50.294;18.644;2023-02-14T15:31:57;21.77;;;9.07;;
18647;SDS011;9453;50.294;18.644;2023-02-14T15:34:29;25.13;;;8.57;;
18647;SDS011;9453;50.294;18.644;2023-02-14T15:37:00;15.90;;;7.23;;
18647;SDS011;9453;50.294;18.644;2023-02-14T15:39:31;14.63;;;7.30;;
18647;SDS011;9453;50.294;18.644;2023-02-14T15:42:02;14.40;;;7.97;;
18647;SDS011;9453;50.294;18.644;2023-02-14T15:44:30;16.67;;;6.37;;
18647;SDS011;9453;50.294;18.644;2023-02-14T15:46:58;15.17;;;6.70;;
18647;SDS011;9453;50.294;18.644;2023-02-14T15:49:32;14.50;;;6.60;;
18647;SDS011;9453;50.294;18.644;2023-02-14T15:52:03;13.13;;;7.23;;
18647;SDS011;9453;50.294;18.644;2023-02-14T15:54:32;14.87;;;7.07;;
18647;SDS011;9453;50.294;18.644;2023-02-14T15:57:03;13.27;;;6.67;;
18647;SDS011;9453;50.294;18.644;2023-02-14T15:59:32;13.57;;;6.77;;
18647;SDS011;9453;50.294;18.644;2023-02-14T16:02:01;12.67;;;6.23;;
18647;SDS011;9453;50.294;18.644;2023-02-14T16:04:41;13.80;;;5.93;;
18647;SDS011;9453;50.294;18.644;2023-02-14T16:07:22;11.10;;;5.43;;
18647;SDS011;9453;50.294;18.644;2023-02-14T16:09:50;14.53;;;6.30;;
18647;SDS011;9453;50.294;18.644;2023-02-14T16:12:56;11.30;;;5.93;;
18647;SDS011;9453;50.294;18.644;2023-02-14T16:15:25;12.80;;;6.13;;
18647;SDS011;9453;50.294;18.644;2023-02-14T16:17:53;14.27;;;6.47;;
18647;SDS011;9453;50.294;18.644;2023-02-14T16:20:23;28.07;;;9.70;;
18647;SDS011;9453;50.294;18.644;2023-02-14T16:25:46;51.83;;;17.07;;
18647;SDS011;9453;50.294;18.644;2023-02-14T16:28:14;34.73;;;11.53;;
18647;SDS011;9453;50.294;18.644;2023-02-14T16:30:41;17.20;;;8.43;;
18647;SDS011;9453;50.294;18.644;2023-02-14T16:33:11;14.70;;;7.07;;
18647;SDS011;9453;50.294;18.644;2023-02-14T16:35:45;12.97;;;6.33;;
18647;SDS011;9453;50.294;18.644;2023-02-14T16:38:12;13.93;;;6.97;;
18647;SDS011;9453;50.294;18.644;2023-02-14T16:40:41;14.83;;;8.07;;
18647;SDS011;9453;50.294;18.644;2023-02-14T16:43:11;16.60;;;7.73;;
18647;SDS011;9453;50.294;18.644;2023-02-14T16:45:39;20.67;;;9.33;;
18647;SDS011;9453;50.294;18.644;2023-02-14T16:48:06;19.43;;;9.10;;
18647;SDS011;9453;50.294;18.644;2023-02-14T16:50:34;17.83;;;8.13;;
18647;SDS011;9453;50.294;18.644;2023-02-14T16:53:05;21.07;;;9.03;;
18647;SDS011;9453;50.294;18.644;2023-02-14T16:55:38;23.27;;;9.13;;
18647;SDS011;9453;50.294;18.644;2023-02-14T16:58:06;17.80;;;8.83;;
18647;SDS011;9453;50.294;18.644;2023-02-14T17:00:33;29.90;;;10.70;;
18647;SDS011;9453;50.294;18.644;2023-02-14T17:03:00;20.20;;;8.70;;
18647;SDS011;9453;50.294;18.644;2023-02-14T17:05:35;20.50;;;8.73;;
18647;SDS011;9453;50.294;18.644;2023-02-14T17:08:04;17.87;;;8.87;;
18647;SDS011;9453;50.294;18.644;2023-02-14T17:10:32;19.57;;;9.67;;
18647;SDS011;9453;50.294;18.644;2023-02-14T17:13:00;19.33;;;9.13;;
18647;SDS011;9453;50.294;18.644;2023-02-14T17:15:28;22.63;;;9.00;;
18647;SDS011;9453;50.294;18.644;2023-02-14T17:17:58;19.47;;;9.73;;
18647;SDS011;9453;50.294;18.644;2023-02-14T17:20:32;18.43;;;8.47;;
18647;SDS011;9453;50.294;18.644;2023-02-14T17:22:59;20.73;;;9.60;;
18647;SDS011;9453;50.294;18.644;2023-02-14T17:25:29;19.03;;;8.63;;
18647;SDS011;9453;50.294;18.644;2023-02-14T17:27:56;16.67;;;8.30;;
18647;SDS011;9453;50.294;18.644;2023-02-14T17:30:25;16.73;;;8.40;;
18647;SDS011;9453;50.294;18.644;2023-02-14T17:32:52;19.40;;;9.40;;
18647;SDS011;9453;50.294;18.644;2023-02-14T17:35:19;19.17;;;9.10;;
18647;SDS011;9453;50.294;18.644;2023-02-14T17:37:47;21.43;;;9.77;;
18647;SDS011;9453;50.294;18.644;2023-02-14T17:40:14;19.63;;;9.57;;
18647;SDS011;9453;50.294;18.644;2023-02-14T17:42:42;16.80;;;8.67;;
18647;SDS011;9453;50.294;18.644;2023-02-14T17:45:09;24.97;;;11.20;;
18647;SDS011;9453;50.294;18.644;2023-02-14T17:50:12;26.60;;;12.90;;
18647;SDS011;9453;50.294;18.644;2023-02-14T17:52:42;28.30;;;14.07;;
18647;SDS011;9453;50.294;18.644;2023-02-14T17:55:09;22.03;;;11.73;;
18647;SDS011;9453;50.294;18.644;2023-02-14T17:57:37;21.83;;;10.30;;
18647;SDS011;9453;50.294;18.644;2023-02-14T18:00:07;20.97;;;10.03;;
18647;SDS011;9453;50.294;18.644;2023-02-14T18:02:35;29.40;;;12.37;;
18647;SDS011;9453;50.294;18.644;2023-02-14T18:05:06;30.57;;;13.23;;
18647;SDS011;9453;50.294;18.644;2023-02-14T18:07:33;30.80;;;12.53;;
18647;SDS011;9453;50.294;18.644;2023-02-14T18:10:01;24.87;;;11.50;;
18647;SDS011;9453;50.294;18.644;2023-02-14T18:12:28;25.50;;;11.43;;
18647;SDS011;9453;50.294;18.644;2023-02-14T18:14:55;26.03;;;10.53;;
18647;SDS011;9453;50.294;18.644;2023-02-14T18:17:23;26.43;;;10.83;;
18647;SDS011;9453;50.294;18.644;2023-02-14T18:19:50;20.63;;;9.47;;
18647;SDS011;9453;50.294;18.644;2023-02-14T18:22:17;27.23;;;10.13;;
18647;SDS011;9453;50.294;18.644;2023-02-14T18:24:44;25.77;;;9.97;;
18647;SDS011;9453;50.294;18.644;2023-02-14T18:27:11;23.07;;;9.93;;
18647;SDS011;9453;50.294;18.644;2023-02-14T18:29:39;25.43;;;10.10;;
18647;SDS011;9453;50.294;18.644;2023-02-14T18:32:12;22.03;;;10.23;;
18647;SDS011;9453;50.294;18.644;2023-02-14T18:34:41;23.47;;;9.57;;
18647;SDS011;9453;50.294;18.644;2023-02-14T18:37:10;22.77;;;9.30;;
18647;SDS011;9453;50.294;18.644;2023-02-14T18:39:37;19.07;;;8.60;;
18647;SDS011;9453;50.294;18.644;2023-02-14T18:42:04;21.07;;;8.97;;
18647;SDS011;9453;50.294;18.644;2023-02-14T18:44:32;24.53;;;10.53;;
18647;SDS011;9453;50.294;18.644;2023-02-14T18:46:58;22.83;;;10.13;;
18647;SDS011;9453;50.294;18.644;2023-02-14T18:52:51;25.17;;;10.00;;
18647;SDS011;9453;50.294;18.644;2023-02-14T18:55:18;20.07;;;9.53;;
18647;SDS011;9453;50.294;18.644;2023-02-14T18:57:45;24.67;;;10.70;;
18647;SDS011;9453;50.294;18.644;2023-02-14T19:00:12;22.23;;;10.27;;
18647;SDS011;9453;50.294;18.644;2023-02-14T19:02:39;26.07;;;10.70;;
18647;SDS011;9453;50.294;18.644;2023-02-14T19:05:07;22.40;;;10.17;;
18647;SDS011;9453;50.294;18.644;2023-02-14T19:07:35;24.67;;;11.00;;
18647;SDS011;9453;50.294;18.644;2023-02-14T19:10:04;34.13;;;12.43;;
18647;SDS011;9453;50.294;18.644;2023-02-14T19:12:32;24.90;;;10.83;;
18647;SDS011;9453;50.294;18.644;2023-02-14T19:15:00;23.40;;;11.47;;
18647;SDS011;9453;50.294;18.644;2023-02-14T19:17:27;26.40;;;11.47;;
18647;SDS011;9453;50.294;18.644;2023-02-14T19:19:54;24.27;;;10.93;;
18647;SDS011;9453;50.294;18.644;2023-02-14T19:22:21;27.40;;;10.93;;
18647;SDS011;9453;50.294;18.644;2023-02-14T19:24:50;23.67;;;10.27;;
18647;SDS011;9453;50.294;18.644;2023-02-14T19:27:18;23.10;;;10.63;;
18647;SDS011;9453;50.294;18.644;2023-02-14T19:29:47;27.47;;;11.40;;
18647;SDS011;9453;50.294;18.644;2023-02-14T19:32:15;26.20;;;11.70;;
18647;SDS011;9453;50.294;18.644;2023-02-14T19:34:42;34.80;;;15.13;;
18647;SDS011;9453;50.294;18.644;2023-02-14T19:37:09;27.60;;;13.87;;
18647;SDS011;9453;50.294;18.644;2023-02-14T19:39:37;38.63;;;15.47;;
18647;SDS011;9453;50.294;18.644;2023-02-14T19:42:04;36.40;;;15.47;;
18647;SDS011;9453;50.294;18.644;2023-02-14T19:44:32;42.67;;;18.27;;
18647;SDS011;9453;50.294;18.644;2023-02-14T19:46:59;40.30;;;16.83;;
18647;SDS011;9453;50.294;18.644;2023-02-14T19:49:28;35.10;;;14.70;;
18647;SDS011;9453;50.294;18.644;2023-02-14T19:51:56;42.17;;;16.80;;
18647;SDS011;9453;50.294;18.644;2023-02-14T19:54:23;39.23;;;16.53;;
18647;SDS011;9453;50.294;18.644;2023-02-14T19:56:51;34.50;;;14.87;;
18647;SDS011;9453;50.294;18.644;2023-02-14T19:59:20;36.93;;;15.33;;
18647;SDS011;9453;50.294;18.644;2023-02-14T20:01:49;33.87;;;13.83;;
18647;SDS011;9453;50.294;18.644;2023-02-14T20:04:17;35.77;;;14.80;;
18647;SDS011;9453;50.294;18.644;2023-02-14T20:06:46;37.50;;;14.20;;
18647;SDS011;9453;50.294;18.644;2023-02-14T20:09:14;29.23;;;13.13;;
18647;SDS011;9453;50.294;18.644;2023-02-14T20:11:42;31.93;;;13.33;;
18647;SDS011;9453;50.294;18.644;2023-02-14T20:14:14;28.53;;;13.17;;
18647;SDS011;9453;50.294;18.644;2023-02-14T20:16:42;30.67;;;12.87;;
18647;SDS011;9453;50.294;18.644;2023-02-14T20:19:12;23.60;;;10.87;;
18647;SDS011;9453;50.294;18.644;2023-02-14T20:21:41;26.63;;;11.43;;
18647;SDS011;9453;50.294;18.644;2023-02-14T20:24:10;26.70;;;12.20;;
18647;SDS011;9453;50.294;18.644;2023-02-14T20:26:38;29.90;;;13.23;;
18647;SDS011;9453;50.294;18.644;2023-02-14T20:29:07;34.47;;;15.17;;